createdAt,value
2022-08-01T00:00:10.265Z,21.70
2022-08-01T00:02:39.347Z,21.80
2022-08-01T00:05:09.087Z,21.80
2022-08-01T00:07:37.024Z,21.70
2022-08-01T00:10:07.256Z,21.60
2022-08-01T00:12:35.221Z,21.60
2022-08-01T00:15:04.519Z,21.60
2022-08-01T00:17:32.802Z,21.50
2022-08-01T00:20:00.734Z,21.50
2022-08-01T00:22:28.573Z,21.40
2022-08-01T00:24:56.339Z,21.30
2022-08-01T00:27:24.224Z,21.20
2022-08-01T00:30:11.812Z,21.20
2022-08-01T00:32:40.311Z,21.30
2022-08-01T00:35:08.495Z,21.30
2022-08-01T00:37:36.355Z,21.30
2022-08-01T00:40:04.724Z,21.30
2022-08-01T00:42:32.542Z,21.10
2022-08-01T00:45:00.487Z,21.10
2022-08-01T00:47:28.258Z,21.10
2022-08-01T00:49:56.092Z,21.10
2022-08-01T00:52:24.033Z,21.20
2022-08-01T00:54:52.159Z,21.30
2022-08-01T00:57:27.885Z,21.30
2022-08-01T01:00:08.784Z,21.30
2022-08-01T01:02:38.172Z,21.30
2022-08-01T01:05:06.764Z,21.30
2022-08-01T01:08:00.836Z,21.30
2022-08-01T01:10:49.081Z,21.30
2022-08-01T01:13:36.374Z,21.20
2022-08-01T01:16:20.585Z,21.20
2022-08-01T01:18:54.080Z,21.20
2022-08-01T01:21:22.519Z,21.20
2022-08-01T01:23:55.749Z,21.10
2022-08-01T01:26:54.911Z,20.90
2022-08-01T01:30:00.170Z,20.80
2022-08-01T01:32:34.817Z,20.60
2022-08-01T01:35:18.706Z,20.50
2022-08-01T01:37:48.938Z,20.50
2022-08-01T01:40:18.982Z,20.50
2022-08-01T01:42:48.394Z,20.40
2022-08-01T01:45:17.143Z,20.40
2022-08-01T01:47:46.349Z,20.30
2022-08-01T01:50:15.210Z,20.30
2022-08-01T01:52:45.285Z,20.30
2022-08-01T01:55:14.507Z,20.30
2022-08-01T01:57:44.257Z,20.40
2022-08-01T02:00:13.806Z,20.50
2022-08-01T02:03:08.568Z,20.60
2022-08-01T02:05:38.980Z,20.70
2022-08-01T02:08:09.198Z,20.70
2022-08-01T02:10:38.529Z,20.70
2022-08-01T02:13:07.671Z,20.80
2022-08-01T02:15:59.459Z,20.90
2022-08-01T02:18:28.541Z,20.90
2022-08-01T02:20:59.035Z,20.90
2022-08-01T02:23:32.629Z,20.90
2022-08-01T02:26:10.816Z,20.90
2022-08-01T02:28:56.020Z,20.90
2022-08-01T02:31:24.794Z,20.90
2022-08-01T02:34:07.178Z,20.80
2022-08-01T02:36:37.557Z,20.80
2022-08-01T02:39:10.269Z,20.60
2022-08-01T02:41:43.298Z,20.50
2022-08-01T02:44:16.795Z,20.50
2022-08-01T02:46:57.404Z,20.40
2022-08-01T02:49:28.287Z,20.40
2022-08-01T02:51:57.923Z,20.40
2022-08-01T02:54:27.684Z,20.30
2022-08-01T02:56:57.448Z,20.30
2022-08-01T02:59:28.740Z,20.30
2022-08-01T03:02:00.793Z,20.30
2022-08-01T03:04:31.244Z,20.30
2022-08-01T03:07:01.245Z,20.10
2022-08-01T03:09:33.040Z,19.90
2022-08-01T03:12:03.854Z,19.80
2022-08-01T03:14:36.255Z,19.80
2022-08-01T03:17:05.927Z,19.70
2022-08-01T03:19:35.475Z,19.80
2022-08-01T03:22:04.797Z,19.70
2022-08-01T03:24:34.357Z,19.80
2022-08-01T03:27:03.452Z,19.80
2022-08-01T03:29:33.048Z,19.90
2022-08-01T03:32:02.564Z,19.90
2022-08-01T03:34:31.301Z,19.80
2022-08-01T03:37:15.167Z,19.60
2022-08-01T03:39:51.221Z,19.60
2022-08-01T03:42:26.572Z,19.70
2022-08-01T03:44:59.596Z,19.70
2022-08-01T03:47:35.045Z,19.80
2022-08-01T03:50:14.566Z,19.70
2022-08-01T03:52:46.257Z,19.60
2022-08-01T03:55:17.930Z,19.50
2022-08-01T03:57:48.195Z,19.40
2022-08-01T04:00:19.476Z,19.30
2022-08-01T04:02:49.842Z,19.30
2022-08-01T04:05:19.068Z,19.20
2022-08-01T04:07:49.086Z,19.20
2022-08-01T04:10:17.926Z,19.20
2022-08-01T04:12:45.809Z,19.30
2022-08-01T04:15:13.764Z,19.40
2022-08-01T04:17:41.762Z,19.40
2022-08-01T04:20:10.378Z,19.30
2022-08-01T04:22:40.546Z,19.40
2022-08-01T04:25:16.973Z,19.40
2022-08-01T04:27:50.354Z,19.30
2022-08-01T04:30:26.765Z,19.30
2022-08-01T04:32:58.536Z,19.10
2022-08-01T04:36:01.858Z,19.00
2022-08-01T04:38:24.080Z,19.10
2022-08-01T04:40:53.697Z,19.00
2022-08-01T04:43:22.649Z,18.90
2022-08-01T04:45:52.458Z,19.00
2022-08-01T04:48:22.974Z,19.40
2022-08-01T04:50:51.252Z,19.70
2022-08-01T04:53:23.129Z,20.10
2022-08-01T04:55:51.066Z,20.50
2022-08-01T04:58:19.300Z,20.90
2022-08-01T05:00:47.922Z,21.00
2022-08-01T05:03:16.643Z,21.10
2022-08-01T05:05:44.848Z,21.00
2022-08-01T05:08:12.712Z,21.00
2022-08-01T05:10:40.593Z,21.10
2022-08-01T05:13:08.858Z,21.40
2022-08-01T05:15:40.205Z,21.70
2022-08-01T05:18:09.731Z,21.70
2022-08-01T05:20:38.336Z,21.90
2022-08-01T05:23:06.514Z,21.50
2022-08-01T05:25:49.746Z,21.30
2022-08-01T05:28:50.436Z,21.30
2022-08-01T05:31:18.308Z,21.50
2022-08-01T05:33:46.011Z,21.50
2022-08-01T05:36:13.908Z,21.30
2022-08-01T05:38:41.746Z,21.20
2022-08-01T05:41:09.690Z,21.20
2022-08-01T05:43:37.652Z,21.70
2022-08-01T05:46:05.518Z,22.10
2022-08-01T05:48:33.391Z,22.70
2022-08-01T05:51:01.274Z,23.30
2022-08-01T05:53:29.284Z,23.70
2022-08-01T05:55:57.125Z,23.90
2022-08-01T05:58:50.615Z,23.30
2022-08-01T06:01:19.712Z,23.60
2022-08-01T06:03:48.001Z,23.60
2022-08-01T06:06:15.995Z,23.50
2022-08-01T06:08:44.171Z,23.70
2022-08-01T06:11:11.996Z,23.60
2022-08-01T06:13:45.295Z,22.90
2022-08-01T06:16:17.568Z,22.90
2022-08-01T06:18:45.579Z,23.00
2022-08-01T06:21:13.450Z,23.30
2022-08-01T06:23:43.223Z,23.50
2022-08-01T06:26:15.563Z,23.40
2022-08-01T06:28:43.403Z,23.60
2022-08-01T06:31:13.761Z,24.20
2022-08-01T06:33:41.541Z,24.60
2022-08-01T06:36:14.441Z,24.70
2022-08-01T06:38:42.477Z,24.90
2022-08-01T06:41:12.915Z,25.60
2022-08-01T06:43:40.800Z,26.00
2022-08-01T06:46:08.777Z,26.00
2022-08-01T06:48:40.444Z,25.70
2022-08-01T06:51:14.414Z,25.40
2022-08-01T06:53:42.311Z,25.20
2022-08-01T06:56:12.321Z,25.60
2022-08-01T06:58:40.187Z,25.40
2022-08-01T07:01:08.493Z,25.30
2022-08-01T07:03:53.091Z,25.20
2022-08-01T07:06:26.081Z,24.90
2022-08-01T07:08:54.676Z,25.30
2022-08-01T07:11:24.215Z,25.60
2022-08-01T07:13:52.004Z,25.20
2022-08-01T07:16:20.713Z,25.80
2022-08-01T07:18:48.705Z,26.30
2022-08-01T07:21:38.158Z,26.20
2022-08-01T07:24:12.736Z,26.20
2022-08-01T07:26:53.087Z,26.30
2022-08-01T07:29:26.042Z,26.00
2022-08-01T07:31:55.941Z,26.10
2022-08-01T07:34:24.577Z,26.00
2022-08-01T07:36:53.591Z,25.80
2022-08-01T07:39:22.035Z,26.60
2022-08-01T07:42:07.668Z,27.10
2022-08-01T07:44:37.550Z,26.70
2022-08-01T07:47:06.882Z,26.70
2022-08-01T07:49:40.038Z,26.90
2022-08-01T07:52:09.610Z,27.30
2022-08-01T07:54:37.808Z,27.30
2022-08-01T07:57:08.932Z,26.60
2022-08-01T07:59:42.039Z,27.00
2022-08-01T08:02:10.391Z,27.90
2022-08-01T08:04:38.655Z,27.80
2022-08-01T08:07:06.758Z,28.20
2022-08-01T08:09:37.469Z,28.40
2022-08-01T08:12:07.318Z,29.20
2022-08-01T08:14:35.719Z,29.50
2022-08-01T08:17:05.246Z,30.00
2022-08-01T08:19:38.170Z,30.30
2022-08-01T08:22:08.970Z,30.50
2022-08-01T08:24:46.734Z,31.10
2022-08-01T08:27:15.808Z,31.20
2022-08-01T08:29:43.996Z,30.90
2022-08-01T08:32:12.993Z,31.00
2022-08-01T08:34:44.419Z,30.70
2022-08-01T08:37:12.413Z,31.10
2022-08-01T08:39:41.805Z,31.00
2022-08-01T08:42:12.781Z,30.80
2022-08-01T08:44:43.670Z,31.10
2022-08-01T08:47:19.755Z,30.80
2022-08-01T08:49:51.387Z,31.50
2022-08-01T08:52:21.581Z,31.90
2022-08-01T08:54:51.527Z,32.30
2022-08-01T08:57:23.583Z,31.90
2022-08-01T08:59:53.182Z,31.60
2022-08-01T09:02:22.298Z,31.50
2022-08-01T09:04:51.839Z,31.10
2022-08-01T09:07:19.782Z,31.00
2022-08-01T09:09:50.183Z,30.80
2022-08-01T09:12:21.486Z,31.20
2022-08-01T09:14:51.294Z,31.70
2022-08-01T09:17:19.396Z,31.30
2022-08-01T09:19:52.240Z,31.90
2022-08-01T09:22:34.424Z,32.40
2022-08-01T09:25:13.681Z,32.70
2022-08-01T09:27:44.084Z,32.30
2022-08-01T09:30:23.865Z,32.40
2022-08-01T09:33:18.119Z,31.80
2022-08-01T09:35:58.687Z,31.90
2022-08-01T09:38:30.352Z,32.10
2022-08-01T09:41:00.176Z,32.30
2022-08-01T09:43:32.786Z,32.30
2022-08-01T09:46:13.803Z,32.40
2022-08-01T09:49:10.910Z,32.10
2022-08-01T09:51:59.506Z,31.90
2022-08-01T09:55:42.944Z,31.20
2022-08-01T09:58:12.535Z,30.90
2022-08-01T10:05:44.287Z,31.80
2022-08-01T10:08:23.255Z,31.10
2022-08-01T10:11:12.813Z,30.60
2022-08-01T10:13:41.203Z,31.10
2022-08-01T10:16:10.078Z,31.40
2022-08-01T10:18:41.816Z,31.60
2022-08-01T10:21:10.911Z,31.90
2022-08-01T10:23:41.152Z,31.90
2022-08-01T10:26:11.339Z,31.70
2022-08-01T10:28:40.281Z,31.40
2022-08-01T10:31:12.619Z,31.30
2022-08-01T10:33:51.822Z,31.70
2022-08-01T10:36:22.847Z,32.20
2022-08-01T10:38:55.184Z,32.40
2022-08-01T10:41:24.429Z,32.60
2022-08-01T10:43:53.222Z,32.50
2022-08-01T10:46:23.569Z,32.40
2022-08-01T10:48:59.234Z,32.50
2022-08-01T10:51:52.087Z,31.90
2022-08-01T10:54:17.896Z,31.50
2022-08-01T10:56:48.784Z,31.70
2022-08-01T10:59:49.378Z,31.60
2022-08-01T11:02:11.131Z,32.30
2022-08-01T11:04:41.720Z,32.80
2022-08-01T11:07:22.019Z,33.20
2022-08-01T11:10:17.601Z,33.70
2022-08-01T11:12:45.461Z,33.50
2022-08-01T11:15:13.234Z,33.20
2022-08-01T11:17:49.181Z,33.00
2022-08-01T11:20:21.639Z,32.80
2022-08-01T11:23:00.527Z,33.10
2022-08-01T11:26:05.893Z,33.10
2022-08-01T11:28:32.208Z,32.90
2022-08-01T11:31:03.273Z,32.70
2022-08-01T11:33:41.631Z,32.50
2022-08-01T11:36:11.423Z,32.70
2022-08-01T11:38:42.559Z,32.90
2022-08-01T11:41:36.874Z,33.00
2022-08-01T11:44:26.267Z,33.00
2022-08-01T11:47:09.403Z,33.00
2022-08-01T11:49:38.845Z,33.20
2022-08-01T11:52:09.582Z,33.50
2022-08-01T11:54:44.995Z,33.70
2022-08-01T11:57:34.487Z,33.80
2022-08-01T12:00:17.652Z,33.70
2022-08-01T12:02:47.846Z,33.90
2022-08-01T12:05:24.838Z,32.80
2022-08-01T12:07:54.777Z,32.70
2022-08-01T12:10:28.160Z,32.60
2022-08-01T12:13:00.577Z,33.00
2022-08-01T12:15:34.327Z,33.30
2022-08-01T12:18:05.633Z,33.50
2022-08-01T12:20:36.001Z,33.60
2022-08-01T12:23:13.272Z,33.30
2022-08-01T12:25:42.112Z,33.40
2022-08-01T12:28:10.716Z,33.40
2022-08-01T12:30:40.026Z,33.10
2022-08-01T12:33:11.254Z,32.70
2022-08-01T12:35:41.717Z,32.40
2022-08-01T12:38:23.182Z,32.80
2022-08-01T12:40:53.129Z,33.20
2022-08-01T12:43:29.738Z,33.50
2022-08-01T12:46:00.265Z,33.50
2022-08-01T12:48:29.168Z,33.60
2022-08-01T12:50:59.281Z,33.70
2022-08-01T12:53:40.610Z,33.90
2022-08-01T12:56:13.449Z,34.00
2022-08-01T12:58:41.797Z,34.30
2022-08-01T13:01:11.968Z,34.20
2022-08-01T13:03:40.705Z,34.10
2022-08-01T13:06:16.528Z,34.30
2022-08-01T13:08:46.735Z,33.30
2022-08-01T13:11:17.355Z,33.00
2022-08-01T13:13:48.602Z,32.50
2022-08-01T13:16:34.358Z,32.70
2022-08-01T13:19:07.453Z,33.10
2022-08-01T13:21:53.900Z,33.50
2022-08-01T13:24:28.098Z,33.80
2022-08-01T13:26:59.595Z,34.00
2022-08-01T13:29:32.469Z,34.00
2022-08-01T13:32:01.872Z,33.60
2022-08-01T13:34:36.113Z,33.60
2022-08-01T13:37:04.126Z,33.70
2022-08-01T13:39:41.567Z,33.90
2022-08-01T13:42:10.648Z,33.30
2022-08-01T13:44:38.928Z,32.60
2022-08-01T13:47:14.901Z,32.60
2022-08-01T13:49:45.035Z,32.70
2022-08-01T13:52:12.934Z,32.70
2022-08-01T13:54:40.801Z,32.80
2022-08-01T13:57:10.476Z,33.20
2022-08-01T13:59:38.751Z,33.60
2022-08-01T14:02:07.057Z,33.90
2022-08-01T14:04:35.194Z,34.00
2022-08-01T14:07:09.641Z,33.90
2022-08-01T14:09:45.077Z,34.00
2022-08-01T14:12:28.076Z,34.20
2022-08-01T14:14:56.188Z,34.30
2022-08-01T14:17:25.229Z,34.30
2022-08-01T14:19:57.566Z,34.50
2022-08-01T14:22:25.496Z,34.50
2022-08-01T14:24:56.139Z,34.30
2022-08-01T14:27:27.579Z,34.20
2022-08-01T14:30:01.944Z,34.20
2022-08-01T14:32:31.541Z,34.10
2022-08-01T14:34:59.425Z,33.80
2022-08-01T14:37:28.756Z,33.80
2022-08-01T14:40:05.883Z,33.80
2022-08-01T14:42:35.285Z,33.60
2022-08-01T14:45:04.344Z,33.50
2022-08-01T14:47:32.213Z,33.50
2022-08-01T14:50:00.036Z,33.70
2022-08-01T14:52:27.925Z,33.80
2022-08-01T14:54:55.778Z,33.80
2022-08-01T14:57:23.668Z,33.90
2022-08-01T14:59:51.536Z,33.70
2022-08-01T15:02:19.519Z,33.50
2022-08-01T15:04:48.647Z,33.50
2022-08-01T15:07:17.478Z,33.50
2022-08-01T15:09:46.226Z,33.30
2022-08-01T15:12:14.148Z,33.10
2022-08-01T15:14:54.055Z,32.80
2022-08-01T15:17:24.067Z,32.90
2022-08-01T15:19:54.314Z,32.90
2022-08-01T15:22:23.899Z,33.00
2022-08-01T15:24:57.181Z,32.90
2022-08-01T15:27:27.438Z,32.80
2022-08-01T15:29:56.445Z,32.80
2022-08-01T15:32:24.971Z,32.70
2022-08-01T15:34:53.097Z,32.60
2022-08-01T15:37:21.149Z,32.50
2022-08-01T15:39:49.501Z,32.40
2022-08-01T15:42:19.364Z,32.40
2022-08-01T15:44:51.715Z,32.40
2022-08-01T15:47:19.646Z,32.40
2022-08-01T15:49:52.406Z,32.30
2022-08-01T15:52:22.009Z,32.30
2022-08-01T15:54:50.854Z,32.30
2022-08-01T15:57:18.925Z,32.20
2022-08-01T15:59:46.727Z,32.20
2022-08-01T16:02:14.827Z,32.20
2022-08-01T16:04:42.748Z,32.10
2022-08-01T16:07:11.578Z,32.10
2022-08-01T16:09:39.679Z,32.00
2022-08-01T16:12:08.715Z,32.10
2022-08-01T16:14:36.859Z,32.10
2022-08-01T16:17:04.809Z,32.10
2022-08-01T16:19:32.822Z,32.20
2022-08-01T16:22:00.844Z,32.20
2022-08-01T16:24:31.025Z,32.30
2022-08-01T16:26:58.968Z,32.40
2022-08-01T16:29:30.780Z,32.40
2022-08-01T16:32:05.966Z,32.60
2022-08-01T16:34:46.699Z,32.60
2022-08-01T16:37:15.445Z,32.70
2022-08-01T16:39:43.517Z,32.60
2022-08-01T16:42:11.942Z,32.60
2022-08-01T16:44:40.064Z,32.50
2022-08-01T16:47:08.046Z,32.40
2022-08-01T16:49:37.278Z,32.40
2022-08-01T16:52:05.593Z,32.30
2022-08-01T16:54:33.688Z,32.10
2022-08-01T16:57:07.941Z,32.00
2022-08-01T16:59:41.661Z,32.00
2022-08-01T17:02:11.224Z,31.90
2022-08-01T17:04:39.223Z,31.80
2022-08-01T17:07:07.435Z,31.80
2022-08-01T17:09:39.769Z,31.90
2022-08-01T17:12:14.380Z,31.80
2022-08-01T17:14:51.263Z,31.80
2022-08-01T17:17:19.382Z,31.80
2022-08-01T17:19:47.341Z,31.70
2022-08-01T17:22:15.401Z,31.60
2022-08-01T17:24:43.483Z,31.40
2022-08-01T17:27:13.332Z,31.30
2022-08-01T17:29:43.904Z,31.10
2022-08-01T17:32:13.863Z,31.10
2022-08-01T17:34:42.694Z,30.90
2022-08-01T17:37:10.910Z,30.90
2022-08-01T17:39:40.078Z,30.80
2022-08-01T17:42:09.416Z,30.70
2022-08-01T17:44:37.531Z,30.40
2022-08-01T17:47:06.793Z,30.10
2022-08-01T17:49:53.772Z,29.90
2022-08-01T17:52:22.283Z,29.70
2022-08-01T17:54:50.669Z,29.50
2022-08-01T17:57:18.532Z,29.40
2022-08-01T18:00:12.215Z,29.30
2022-08-01T18:02:40.078Z,29.10
2022-08-01T18:05:10.768Z,29.10
2022-08-01T18:08:01.015Z,29.10
2022-08-01T18:10:51.832Z,29.00
2022-08-01T18:13:20.602Z,28.80
2022-08-01T18:15:49.127Z,28.70
2022-08-01T18:18:21.025Z,28.60
2022-08-01T18:21:02.525Z,28.60
2022-08-01T18:23:30.430Z,28.40
2022-08-01T18:26:01.512Z,28.30
2022-08-01T18:28:34.091Z,28.20
2022-08-01T18:31:06.703Z,28.10
2022-08-01T18:33:35.514Z,28.00
2022-08-01T18:36:04.512Z,27.90
2022-08-01T18:38:33.196Z,27.90
2022-08-01T18:41:02.058Z,27.80
2022-08-01T18:43:30.768Z,27.70
2022-08-01T18:45:58.830Z,27.70
2022-08-01T18:48:26.633Z,27.60
2022-08-01T18:50:54.731Z,27.40
2022-08-01T18:53:24.122Z,27.10
2022-08-01T18:55:52.028Z,27.00
2022-08-01T18:58:20.594Z,26.70
2022-08-01T19:00:48.516Z,26.40
2022-08-01T19:03:16.872Z,26.20
2022-08-01T19:05:44.715Z,26.10
2022-08-01T19:08:12.885Z,25.90
2022-08-01T19:10:41.560Z,25.80
2022-08-01T19:13:09.539Z,25.70
2022-08-01T19:15:37.437Z,25.70
2022-08-01T19:18:05.762Z,25.50
2022-08-01T19:20:33.727Z,25.50
2022-08-01T19:23:21.480Z,25.40
2022-08-01T19:25:55.367Z,25.30
2022-08-01T19:28:25.686Z,25.20
2022-08-01T19:30:55.607Z,25.10
2022-08-01T19:33:23.451Z,25.10
2022-08-01T19:35:52.911Z,24.90
2022-08-01T19:38:20.849Z,24.80
2022-08-01T19:40:49.658Z,24.60
2022-08-01T19:43:21.153Z,24.60
2022-08-01T19:45:50.737Z,24.50
2022-08-01T19:48:19.138Z,24.60
2022-08-01T19:50:48.645Z,24.50
2022-08-01T19:53:20.398Z,24.40
2022-08-01T19:55:48.812Z,24.30
2022-08-01T19:58:26.877Z,24.20
2022-08-01T20:00:55.794Z,24.20
2022-08-01T20:03:24.189Z,24.30
2022-08-01T20:11:11.903Z,24.20
2022-08-01T20:13:41.639Z,23.70
2022-08-01T20:16:09.620Z,23.50
2022-08-01T20:18:39.931Z,23.60
2022-08-01T20:21:11.782Z,23.70
2022-08-01T20:23:41.435Z,23.70
2022-08-01T20:26:10.509Z,23.50
2022-08-01T20:28:41.909Z,23.50
2022-08-01T20:31:10.648Z,23.60
2022-08-01T20:33:45.140Z,23.60
2022-08-01T20:36:25.069Z,23.70
2022-08-01T20:38:56.562Z,23.60
2022-08-01T20:41:26.583Z,23.60
2022-08-01T20:43:57.160Z,23.40
2022-08-01T20:46:28.679Z,23.20
2022-08-01T20:48:58.662Z,23.10
2022-08-01T20:51:27.922Z,23.10
2022-08-01T20:53:56.528Z,23.00
2022-08-01T20:56:38.145Z,23.20
2022-08-01T20:59:56.631Z,23.50
2022-08-01T21:02:51.505Z,23.70
2022-08-01T21:05:32.732Z,23.70
2022-08-01T21:08:05.771Z,23.70
2022-08-01T21:10:36.451Z,23.70
2022-08-01T21:13:12.312Z,23.60
2022-08-01T21:16:12.601Z,23.50
2022-08-01T21:19:16.882Z,23.20
2022-08-01T21:22:27.117Z,23.00
2022-08-01T21:25:05.496Z,23.10
2022-08-01T21:27:35.993Z,23.10
2022-08-01T21:30:07.211Z,23.00
2022-08-01T21:32:36.438Z,22.80
2022-08-01T21:35:05.970Z,22.90
2022-08-01T21:37:45.449Z,22.90
2022-08-01T21:40:24.282Z,22.90
2022-08-01T21:42:53.508Z,23.00
2022-08-01T21:45:27.166Z,22.90
2022-08-01T21:47:57.224Z,22.90
2022-08-01T21:50:25.447Z,22.80
2022-08-01T21:53:15.167Z,22.50
2022-08-01T21:56:14.535Z,22.30
2022-08-01T21:59:10.195Z,22.30
2022-08-01T22:01:53.236Z,22.30
2022-08-01T22:04:31.648Z,22.20
2022-08-01T22:07:00.548Z,22.10
2022-08-01T22:09:29.877Z,22.00
2022-08-01T22:12:02.655Z,22.00
2022-08-01T22:14:33.550Z,21.90
2022-08-01T22:17:01.720Z,21.90
2022-08-01T22:19:44.484Z,21.90
2022-08-01T22:22:51.289Z,21.80
2022-08-01T22:25:03.293Z,21.70
2022-08-01T22:28:05.668Z,21.80
2022-08-01T22:30:20.840Z,21.40
2022-08-01T22:33:15.858Z,21.80
2022-08-01T22:35:39.866Z,21.80
2022-08-01T22:38:09.950Z,21.80
2022-08-01T22:40:45.995Z,21.80
2022-08-01T22:43:23.778Z,21.60
2022-08-01T22:45:54.332Z,21.60
2022-08-01T22:48:25.895Z,21.60
2022-08-01T22:51:34.366Z,21.70
2022-08-01T22:54:06.508Z,21.80
2022-08-01T22:56:39.241Z,21.80
2022-08-01T22:59:15.416Z,21.80
2022-08-01T23:01:47.795Z,21.80
2022-08-01T23:04:24.335Z,21.90
2022-08-01T23:07:05.961Z,21.90
2022-08-01T23:09:52.829Z,21.50
2022-08-01T23:12:27.211Z,21.20
2022-08-01T23:14:57.828Z,21.10
2022-08-01T23:17:29.188Z,20.90
2022-08-01T23:20:03.957Z,21.00
2022-08-01T23:22:34.318Z,20.90
2022-08-01T23:25:06.774Z,20.90
2022-08-01T23:28:03.778Z,20.80
2022-08-01T23:30:31.145Z,20.90
2022-08-01T23:32:59.596Z,21.00
2022-08-01T23:35:28.887Z,21.10
2022-08-01T23:38:01.789Z,21.10
2022-08-01T23:40:33.402Z,21.10
2022-08-01T23:43:02.508Z,21.20
2022-08-01T23:46:01.690Z,21.20
2022-08-01T23:48:19.162Z,21.30
2022-08-01T23:50:47.219Z,21.10
2022-08-01T23:53:15.207Z,21.00
2022-08-01T23:55:44.422Z,20.90
2022-08-01T23:58:12.573Z,20.80
